sensor_id;sensor_type;location;lat;lon;timestamp;pressure;altitude;pressure_sealevel;temperature;humidity
53041;BME280;39326;42.650;23.248;2023-03-25T00:01:56;92298.03;;;7.86;65.73
53041;BME280;39326;42.650;23.248;2023-03-25T00:04:22;92293.06;;;7.81;65.96
53041;BME280;39326;42.650;23.248;2023-03-25T00:06:53;92298.00;;;7.79;65.81
53041;BME280;39326;42.650;23.248;2023-03-25T00:09:20;92291.53;;;7.76;65.97
53041;BME280;39326;42.650;23.248;2023-03-25T00:11:48;92300.97;;;7.70;66.41
53041;BME280;39326;42.650;23.248;2023-03-25T00:14:14;92290.72;;;7.65;65.74
53041;BME280;39326;42.650;23.248;2023-03-25T00:16:41;92285.41;;;7.65;66.30
53041;BME280;39326;42.650;23.248;2023-03-25T00:19:07;92285.03;;;7.63;66.54
53041;BME280;39326;42.650;23.248;2023-03-25T00:21:33;92278.94;;;7.62;66.57
53041;BME280;39326;42.650;23.248;2023-03-25T00:24:00;92284.19;;;7.52;66.91
53041;BME280;39326;42.650;23.248;2023-03-25T00:26:26;92281.50;;;7.48;67.14
53041;BME280;39326;42.650;23.248;2023-03-25T00:28:54;92274.28;;;7.49;66.69
53041;BME280;39326;42.650;23.248;2023-03-25T00:31:20;92267.50;;;7.51;67.25
53041;BME280;39326;42.650;23.248;2023-03-25T00:33:45;92268.22;;;7.48;67.15
53041;BME280;39326;42.650;23.248;2023-03-25T00:36:11;92273.53;;;7.45;67.01
53041;BME280;39326;42.650;23.248;2023-03-25T00:38:42;92271.22;;;7.43;67.58
53041;BME280;39326;42.650;23.248;2023-03-25T00:41:22;92273.44;;;7.34;67.72
53041;BME280;39326;42.650;23.248;2023-03-25T00:43:55;92271.19;;;7.36;68.01
53041;BME280;39326;42.650;23.248;2023-03-25T00:46:23;92272.34;;;7.38;68.04
53041;BME280;39326;42.650;23.248;2023-03-25T00:48:51;92269.28;;;7.36;68.08
53041;BME280;39326;42.650;23.248;2023-03-25T00:51:17;92265.06;;;7.28;68.27
53041;BME280;39326;42.650;23.248;2023-03-25T00:53:47;92246.47;;;7.21;68.69
53041;BME280;39326;42.650;23.248;2023-03-25T00:56:16;92257.81;;;7.22;68.46
53041;BME280;39326;42.650;23.248;2023-03-25T00:58:41;92251.06;;;7.28;69.03
53041;BME280;39326;42.650;23.248;2023-03-25T01:01:08;92251.06;;;7.28;68.95
53041;BME280;39326;42.650;23.248;2023-03-25T01:03:35;92251.78;;;7.25;68.72
53041;BME280;39326;42.650;23.248;2023-03-25T01:06:01;92252.56;;;7.29;68.96
53041;BME280;39326;42.650;23.248;2023-03-25T01:08:27;92256.38;;;7.31;68.63
53041;BME280;39326;42.650;23.248;2023-03-25T01:10:54;92250.28;;;7.27;68.63
53041;BME280;39326;42.650;23.248;2023-03-25T01:13:20;92234.75;;;7.26;68.67
53041;BME280;39326;42.650;23.248;2023-03-25T01:15:46;92239.63;;;7.20;68.79
53041;BME280;39326;42.650;23.248;2023-03-25T01:18:11;92235.84;;;7.21;69.06
53041;BME280;39326;42.650;23.248;2023-03-25T01:20:38;92232.41;;;7.14;69.34
53041;BME280;39326;42.650;23.248;2023-03-25T01:23:04;92232.44;;;7.21;69.57
53041;BME280;39326;42.650;23.248;2023-03-25T01:25:30;92230.88;;;7.16;69.42
53041;BME280;39326;42.650;23.248;2023-03-25T01:27:55;92218.97;;;6.92;70.47
53041;BME280;39326;42.650;23.248;2023-03-25T01:30:20;92211.47;;;7.01;70.17
53041;BME280;39326;42.650;23.248;2023-03-25T01:32:46;92215.31;;;7.11;69.49
53041;BME280;39326;42.650;23.248;2023-03-25T01:35:12;92212.31;;;7.13;69.71
53041;BME280;39326;42.650;23.248;2023-03-25T01:37:38;92208.16;;;7.15;70.01
53041;BME280;39326;42.650;23.248;2023-03-25T01:40:04;92209.66;;;7.16;69.61
53041;BME280;39326;42.650;23.248;2023-03-25T01:42:33;92204.03;;;7.21;70.05
53041;BME280;39326;42.650;23.248;2023-03-25T01:45:33;92201.38;;;7.25;69.81
53041;BME280;39326;42.650;23.248;2023-03-25T01:48:05;92194.97;;;7.29;69.33
53041;BME280;39326;42.650;23.248;2023-03-25T01:50:36;92200.28;;;7.26;69.86
53041;BME280;39326;42.650;23.248;2023-03-25T01:53:05;92195.31;;;7.21;69.41
53041;BME280;39326;42.650;23.248;2023-03-25T01:55:33;92202.56;;;7.27;69.88
53041;BME280;39326;42.650;23.248;2023-03-25T01:58:01;92206.34;;;7.26;69.70
53041;BME280;39326;42.650;23.248;2023-03-25T02:00:29;92196.78;;;7.15;70.01
53041;BME280;39326;42.650;23.248;2023-03-25T02:02:57;92204.00;;;7.14;70.19
53041;BME280;39326;42.650;23.248;2023-03-25T02:05:33;92201.72;;;7.16;70.23
53041;BME280;39326;42.650;23.248;2023-03-25T02:08:03;92194.53;;;7.17;70.36
53041;BME280;39326;42.650;23.248;2023-03-25T02:10:30;92203.22;;;7.17;69.92
53041;BME280;39326;42.650;23.248;2023-03-25T02:12:57;92194.47;;;7.09;70.21
53041;BME280;39326;42.650;23.248;2023-03-25T02:15:23;92194.81;;;7.04;70.68
53041;BME280;39326;42.650;23.248;2023-03-25T02:29:10;92185.69;;;6.98;70.95
53041;BME280;39326;42.650;23.248;2023-03-25T02:39:38;92177.69;;;6.88;71.01
53041;BME280;39326;42.650;23.248;2023-03-25T02:42:38;92180.72;;;6.90;70.62
53041;BME280;39326;42.650;23.248;2023-03-25T02:45:11;92169.66;;;6.80;70.55
53041;BME280;39326;42.650;23.248;2023-03-25T02:47:46;92172.31;;;6.80;71.25
53041;BME280;39326;42.650;23.248;2023-03-25T02:50:16;92176.50;;;6.85;71.05
53041;BME280;39326;42.650;23.248;2023-03-25T02:52:50;92172.72;;;6.86;70.63
53041;BME280;39326;42.650;23.248;2023-03-25T02:55:17;92164.31;;;6.73;70.86
53041;BME280;39326;42.650;23.248;2023-03-25T02:57:46;92172.69;;;6.79;70.74
53041;BME280;39326;42.650;23.248;2023-03-25T03:00:17;92166.59;;;6.75;70.94
53041;BME280;39326;42.650;23.248;2023-03-25T03:02:51;92159.38;;;6.72;71.29
53041;BME280;39326;42.650;23.248;2023-03-25T03:05:29;92169.88;;;6.61;72.13
53041;BME280;39326;42.650;23.248;2023-03-25T03:13:23;92154.38;;;6.60;71.70
53041;BME280;39326;42.650;23.248;2023-03-25T03:21:16;92154.25;;;6.49;72.40
53041;BME280;39326;42.650;23.248;2023-03-25T03:31:49;92173.53;;;6.46;72.25
53041;BME280;39326;42.650;23.248;2023-03-25T03:34:44;92169.31;;;6.38;72.22
53041;BME280;39326;42.650;23.248;2023-03-25T03:37:15;92165.53;;;6.42;72.17
53041;BME280;39326;42.650;23.248;2023-03-25T03:39:44;92165.22;;;6.47;71.96
53041;BME280;39326;42.650;23.248;2023-03-25T03:42:28;92165.19;;;6.44;72.66
53041;BME280;39326;42.650;23.248;2023-03-25T03:45:04;92176.13;;;6.39;72.35
53041;BME280;39326;42.650;23.248;2023-03-25T03:47:35;92180.59;;;6.31;72.50
53041;BME280;39326;42.650;23.248;2023-03-25T03:50:08;92157.81;;;6.23;72.53
53041;BME280;39326;42.650;23.248;2023-03-25T03:52:40;92183.66;;;6.37;72.25
53041;BME280;39326;42.650;23.248;2023-03-25T03:55:12;92183.31;;;6.38;72.77
53041;BME280;39326;42.650;23.248;2023-03-25T03:57:43;92179.03;;;6.26;72.99
53041;BME280;39326;42.650;23.248;2023-03-25T04:00:18;92179.00;;;6.23;73.28
53041;BME280;39326;42.650;23.248;2023-03-25T04:03:13;92176.81;;;6.32;73.05
53041;BME280;39326;42.650;23.248;2023-03-25T04:05:42;92168.88;;;6.32;72.54
53041;BME280;39326;42.650;23.248;2023-03-25T04:08:17;92174.59;;;6.38;72.80
53041;BME280;39326;42.650;23.248;2023-03-25T04:13:19;92169.56;;;6.25;73.43
53041;BME280;39326;42.650;23.248;2023-03-25T04:15:45;92162.28;;;6.15;73.45
53041;BME280;39326;42.650;23.248;2023-03-25T04:18:11;92170.59;;;6.14;73.75
53041;BME280;39326;42.650;23.248;2023-03-25T04:20:37;92166.88;;;6.18;73.35
53041;BME280;39326;42.650;23.248;2023-03-25T04:23:10;92161.91;;;6.13;73.53
53041;BME280;39326;42.650;23.248;2023-03-25T04:25:43;92160.44;;;6.23;73.27
53041;BME280;39326;42.650;23.248;2023-03-25T04:28:12;92163.91;;;6.30;72.91
53041;BME280;39326;42.650;23.248;2023-03-25T04:30:38;92166.94;;;6.25;72.72
53041;BME280;39326;42.650;23.248;2023-03-25T04:33:04;92172.66;;;6.31;72.66
53041;BME280;39326;42.650;23.248;2023-03-25T04:35:30;92170.44;;;6.40;72.43
53041;BME280;39326;42.650;23.248;2023-03-25T04:37:57;92172.66;;;6.35;72.33
53041;BME280;39326;42.650;23.248;2023-03-25T04:40:23;92177.66;;;6.43;72.07
53041;BME280;39326;42.650;23.248;2023-03-25T04:42:50;92174.25;;;6.43;72.09
53041;BME280;39326;42.650;23.248;2023-03-25T04:45:17;92182.59;;;6.45;72.11
53041;BME280;39326;42.650;23.248;2023-03-25T04:47:45;92179.22;;;6.48;72.33
53041;BME280;39326;42.650;23.248;2023-03-25T04:50:26;92182.28;;;6.53;72.32
53041;BME280;39326;42.650;23.248;2023-03-25T04:52:52;92184.56;;;6.51;72.25
53041;BME280;39326;42.650;23.248;2023-03-25T04:55:19;92180.50;;;6.61;71.96
53041;BME280;39326;42.650;23.248;2023-03-25T04:57:49;92187.38;;;6.69;71.78
53041;BME280;39326;42.650;23.248;2023-03-25T05:00:20;92190.47;;;6.78;71.89
53041;BME280;39326;42.650;23.248;2023-03-25T05:02:51;92180.25;;;6.80;71.63
53041;BME280;39326;42.650;23.248;2023-03-25T05:05:20;92178.41;;;6.84;71.34
53041;BME280;39326;42.650;23.248;2023-03-25T05:07:53;92184.50;;;6.92;71.22
53041;BME280;39326;42.650;23.248;2023-03-25T05:10:21;92181.50;;;6.94;70.74
53041;BME280;39326;42.650;23.248;2023-03-25T05:12:48;92180.81;;;7.04;70.91
53041;BME280;39326;42.650;23.248;2023-03-25T05:15:14;92187.28;;;7.10;70.51
53041;BME280;39326;42.650;23.248;2023-03-25T05:17:42;92182.44;;;7.19;70.57
53041;BME280;39326;42.650;23.248;2023-03-25T05:20:08;92185.09;;;7.23;69.18
53041;BME280;39326;42.650;23.248;2023-03-25T05:22:35;92184.06;;;7.38;68.86
53041;BME280;39326;42.650;23.248;2023-03-25T05:25:06;92190.91;;;7.46;67.91
53041;BME280;39326;42.650;23.248;2023-03-25T05:27:33;92177.25;;;7.48;67.76
53041;BME280;39326;42.650;23.248;2023-03-25T05:29:59;92186.81;;;7.66;67.43
53041;BME280;39326;42.650;23.248;2023-03-25T05:32:25;92190.28;;;7.74;66.95
53041;BME280;39326;42.650;23.248;2023-03-25T05:34:54;92189.94;;;7.83;66.97
53041;BME280;39326;42.650;23.248;2023-03-25T05:37:20;92189.94;;;7.83;66.79
53041;BME280;39326;42.650;23.248;2023-03-25T05:39:45;92189.59;;;7.95;66.68
53041;BME280;39326;42.650;23.248;2023-03-25T05:42:11;92187.31;;;7.93;65.99
53041;BME280;39326;42.650;23.248;2023-03-25T05:44:36;92194.53;;;7.97;65.71
53041;BME280;39326;42.650;23.248;2023-03-25T05:47:03;92201.03;;;8.13;65.35
53041;BME280;39326;42.650;23.248;2023-03-25T05:49:28;92193.50;;;8.26;64.63
53041;BME280;39326;42.650;23.248;2023-03-25T05:51:54;92197.66;;;8.27;63.90
53041;BME280;39326;42.650;23.248;2023-03-25T05:54:19;92193.88;;;8.35;63.48
53041;BME280;39326;42.650;23.248;2023-03-25T05:56:45;92191.66;;;8.48;63.16
53041;BME280;39326;42.650;23.248;2023-03-25T05:59:11;92198.84;;;8.47;62.79
53041;BME280;39326;42.650;23.248;2023-03-25T06:01:38;92196.97;;;8.62;62.60
53041;BME280;39326;42.650;23.248;2023-03-25T06:04:06;92196.59;;;8.53;62.40
53041;BME280;39326;42.650;23.248;2023-03-25T06:06:34;92188.25;;;8.72;62.24
53041;BME280;39326;42.650;23.248;2023-03-25T06:09:00;92186.38;;;8.84;62.18
53041;BME280;39326;42.650;23.248;2023-03-25T06:11:26;92182.19;;;8.97;61.61
53041;BME280;39326;42.650;23.248;2023-03-25T06:13:52;92176.84;;;9.11;61.20
53041;BME280;39326;42.650;23.248;2023-03-25T06:16:19;92179.84;;;9.24;60.77
53041;BME280;39326;42.650;23.248;2023-03-25T06:18:47;92176.03;;;9.36;60.51
53041;BME280;39326;42.650;23.248;2023-03-25T06:21:22;92176.38;;;9.48;60.54
53041;BME280;39326;42.650;23.248;2023-03-25T06:23:48;92184.78;;;9.36;60.10
53041;BME280;39326;42.650;23.248;2023-03-25T06:26:18;92183.63;;;9.51;60.48
53041;BME280;39326;42.650;23.248;2023-03-25T06:28:44;92177.84;;;9.67;59.92
53041;BME280;39326;42.650;23.248;2023-03-25T06:31:14;92183.13;;;9.81;59.63
53041;BME280;39326;42.650;23.248;2023-03-25T06:33:43;92185.41;;;9.87;59.84
53041;BME280;39326;42.650;23.248;2023-03-25T06:36:10;92175.09;;;9.96;59.68
53041;BME280;39326;42.650;23.248;2023-03-25T06:38:37;92189.16;;;9.96;59.73
53041;BME280;39326;42.650;23.248;2023-03-25T06:41:03;92190.28;;;10.06;59.78
53041;BME280;39326;42.650;23.248;2023-03-25T06:43:29;92193.31;;;10.12;59.50
53041;BME280;39326;42.650;23.248;2023-03-25T06:45:54;92195.22;;;10.11;59.65
53041;BME280;39326;42.650;23.248;2023-03-25T06:48:20;92191.41;;;10.16;59.45
53041;BME280;39326;42.650;23.248;2023-03-25T06:50:46;92206.19;;;10.20;59.54
53041;BME280;39326;42.650;23.248;2023-03-25T06:53:11;92202.38;;;10.25;59.22
53041;BME280;39326;42.650;23.248;2023-03-25T06:55:36;92205.75;;;10.40;58.52
53041;BME280;39326;42.650;23.248;2023-03-25T06:58:03;92210.59;;;10.52;58.58
53041;BME280;39326;42.650;23.248;2023-03-25T07:00:29;92207.47;;;10.71;57.98
53041;BME280;39326;42.650;23.248;2023-03-25T07:02:55;92216.56;;;10.74;57.16
53041;BME280;39326;42.650;23.248;2023-03-25T07:05:22;92208.03;;;10.97;56.78
53041;BME280;39326;42.650;23.248;2023-03-25T07:07:48;92207.19;;;11.07;56.90
53041;BME280;39326;42.650;23.248;2023-03-25T07:10:14;92206.09;;;11.01;56.81
53041;BME280;39326;42.650;23.248;2023-03-25T07:12:40;92202.59;;;11.07;56.63
53041;BME280;39326;42.650;23.248;2023-03-25T07:15:06;92206.09;;;11.01;56.95
53041;BME280;39326;42.650;23.248;2023-03-25T07:17:32;92192.44;;;10.92;57.32
53041;BME280;39326;42.650;23.248;2023-03-25T07:19:57;92199.84;;;11.22;56.87
53041;BME280;39326;42.650;23.248;2023-03-25T07:22:22;92195.47;;;11.42;56.51
53041;BME280;39326;42.650;23.248;2023-03-25T07:24:48;92200.66;;;11.56;56.42
53041;BME280;39326;42.650;23.248;2023-03-25T07:27:14;92206.25;;;11.69;55.96
53041;BME280;39326;42.650;23.248;2023-03-25T07:29:40;92196.75;;;11.64;56.34
53041;BME280;39326;42.650;23.248;2023-03-25T07:32:05;92207.69;;;11.77;56.56
53041;BME280;39326;42.650;23.248;2023-03-25T07:34:31;92201.69;;;12.04;55.71
53041;BME280;39326;42.650;23.248;2023-03-25T07:36:57;92209.47;;;12.21;55.55
53041;BME280;39326;42.650;23.248;2023-03-25T07:39:22;92204.69;;;12.09;55.10
53041;BME280;39326;42.650;23.248;2023-03-25T07:41:50;92210.09;;;12.36;55.95
53041;BME280;39326;42.650;23.248;2023-03-25T07:44:16;92191.66;;;12.72;55.49
53041;BME280;39326;42.650;23.248;2023-03-25T07:46:44;92188.88;;;13.03;54.32
53041;BME280;39326;42.650;23.248;2023-03-25T07:49:10;92180.81;;;13.30;53.16
53041;BME280;39326;42.650;23.248;2023-03-25T07:51:35;92186.72;;;13.65;53.16
53041;BME280;39326;42.650;23.248;2023-03-25T07:54:01;92191.03;;;14.02;53.19
53041;BME280;39326;42.650;23.248;2023-03-25T07:56:26;92181.09;;;14.38;52.14
53041;BME280;39326;42.650;23.248;2023-03-25T07:58:54;92181.31;;;14.64;51.52
53041;BME280;39326;42.650;23.248;2023-03-25T08:01:20;92179.19;;;14.91;50.58
53041;BME280;39326;42.650;23.248;2023-03-25T08:03:45;92173.69;;;15.31;50.18
53041;BME280;39326;42.650;23.248;2023-03-25T08:06:10;92167.72;;;15.69;48.38
53041;BME280;39326;42.650;23.248;2023-03-25T08:08:36;92166.25;;;15.97;47.99
53041;BME280;39326;42.650;23.248;2023-03-25T08:11:02;92173.09;;;16.27;47.29
53041;BME280;39326;42.650;23.248;2023-03-25T08:13:27;92167.34;;;16.67;46.10
53041;BME280;39326;42.650;23.248;2023-03-25T08:15:53;92163.88;;;16.79;46.18
53041;BME280;39326;42.650;23.248;2023-03-25T08:18:19;92164.53;;;16.45;45.50
53041;BME280;39326;42.650;23.248;2023-03-25T08:20:45;92164.31;;;16.39;46.04
53041;BME280;39326;42.650;23.248;2023-03-25T08:23:10;92163.03;;;16.57;46.40
53041;BME280;39326;42.650;23.248;2023-03-25T08:25:37;92160.66;;;16.84;46.56
53041;BME280;39326;42.650;23.248;2023-03-25T08:28:03;92168.63;;;16.37;45.68
53041;BME280;39326;42.650;23.248;2023-03-25T08:30:29;92167.84;;;16.49;46.07
53041;BME280;39326;42.650;23.248;2023-03-25T08:32:54;92161.66;;;16.90;45.20
53041;BME280;39326;42.650;23.248;2023-03-25T08:35:22;92156.47;;;17.09;45.21
53041;BME280;39326;42.650;23.248;2023-03-25T08:37:48;92157.31;;;16.54;43.91
53041;BME280;39326;42.650;23.248;2023-03-25T08:40:14;92147.94;;;16.46;44.00
53041;BME280;39326;42.650;23.248;2023-03-25T08:42:42;92152.59;;;16.71;44.83
53041;BME280;39326;42.650;23.248;2023-03-25T08:45:08;92151.38;;;16.34;44.89
53041;BME280;39326;42.650;23.248;2023-03-25T08:47:34;92143.09;;;16.41;44.83
53041;BME280;39326;42.650;23.248;2023-03-25T08:50:00;92146.44;;;16.84;43.38
53041;BME280;39326;42.650;23.248;2023-03-25T08:52:25;92144.81;;;16.86;43.84
53041;BME280;39326;42.650;23.248;2023-03-25T08:54:50;92157.53;;;16.86;44.38
53041;BME280;39326;42.650;23.248;2023-03-25T08:57:16;92153.91;;;16.92;44.28
53041;BME280;39326;42.650;23.248;2023-03-25T08:59:41;92134.63;;;16.94;44.70
53041;BME280;39326;42.650;23.248;2023-03-25T09:02:09;92141.69;;;17.26;43.88
53041;BME280;39326;42.650;23.248;2023-03-25T09:04:34;92141.63;;;17.51;43.95
53041;BME280;39326;42.650;23.248;2023-03-25T09:07:00;92112.09;;;17.70;42.81
53041;BME280;39326;42.650;23.248;2023-03-25T09:09:25;92133.41;;;17.90;42.78
53041;BME280;39326;42.650;23.248;2023-03-25T09:11:51;92133.09;;;17.88;43.08
53041;BME280;39326;42.650;23.248;2023-03-25T09:14:16;92131.09;;;18.01;42.93
53041;BME280;39326;42.650;23.248;2023-03-25T09:16:41;92123.06;;;18.41;42.31
53041;BME280;39326;42.650;23.248;2023-03-25T09:19:08;92121.13;;;18.41;42.50
53041;BME280;39326;42.650;23.248;2023-03-25T09:21:34;92111.16;;;18.29;41.97
53041;BME280;39326;42.650;23.248;2023-03-25T09:23:59;92114.13;;;18.53;41.77
53041;BME280;39326;42.650;23.248;2023-03-25T09:26:25;92123.16;;;18.28;41.81
53041;BME280;39326;42.650;23.248;2023-03-25T09:28:51;92122.16;;;18.35;42.08
53041;BME280;39326;42.650;23.248;2023-03-25T09:31:16;92118.28;;;18.14;42.20
53041;BME280;39326;42.650;23.248;2023-03-25T09:33:42;92118.72;;;18.44;41.74
53041;BME280;39326;42.650;23.248;2023-03-25T09:36:08;92115.78;;;18.51;41.59
53041;BME280;39326;42.650;23.248;2023-03-25T09:38:33;92118.03;;;18.52;41.88
53041;BME280;39326;42.650;23.248;2023-03-25T09:41:03;92112.66;;;18.30;41.15
53041;BME280;39326;42.650;23.248;2023-03-25T09:46:01;92117.50;;;19.07;40.81
53041;BME280;39326;42.650;23.248;2023-03-25T09:48:37;92114.88;;;18.76;40.00
53041;BME280;39326;42.650;23.248;2023-03-25T09:51:05;92117.56;;;18.76;40.18
53041;BME280;39326;42.650;23.248;2023-03-25T09:53:44;92120.06;;;18.39;39.54
53041;BME280;39326;42.650;23.248;2023-03-25T09:56:15;92110.53;;;18.56;40.22
53041;BME280;39326;42.650;23.248;2023-03-25T09:58:45;92102.09;;;18.76;39.71
53041;BME280;39326;42.650;23.248;2023-03-25T10:10:01;92098.72;;;19.12;39.33
53041;BME280;39326;42.650;23.248;2023-03-25T10:15:25;92089.59;;;19.28;38.10
53041;BME280;39326;42.650;23.248;2023-03-25T10:18:26;92080.91;;;19.33;38.64
53041;BME280;39326;42.650;23.248;2023-03-25T10:26:31;92069.47;;;20.03;37.74
53041;BME280;39326;42.650;23.248;2023-03-25T10:29:05;92062.97;;;20.18;37.52
53041;BME280;39326;42.650;23.248;2023-03-25T10:31:35;92064.44;;;20.28;37.30
53041;BME280;39326;42.650;23.248;2023-03-25T10:34:07;92059.00;;;20.47;36.77
53041;BME280;39326;42.650;23.248;2023-03-25T10:36:39;92056.94;;;20.33;36.42
53041;BME280;39326;42.650;23.248;2023-03-25T10:39:17;92051.44;;;19.90;36.36
53041;BME280;39326;42.650;23.248;2023-03-25T10:41:50;92049.06;;;20.44;36.03
53041;BME280;39326;42.650;23.248;2023-03-25T10:44:17;92046.34;;;20.53;36.16
53041;BME280;39326;42.650;23.248;2023-03-25T10:49:19;92042.03;;;20.70;36.37
53041;BME280;39326;42.650;23.248;2023-03-25T10:51:46;92043.75;;;20.82;36.20
53041;BME280;39326;42.650;23.248;2023-03-25T10:54:13;92033.38;;;20.81;36.02
53041;BME280;39326;42.650;23.248;2023-03-25T10:56:51;92033.00;;;20.97;35.39
53041;BME280;39326;42.650;23.248;2023-03-25T10:59:25;92031.63;;;21.02;34.94
53041;BME280;39326;42.650;23.248;2023-03-25T11:01:54;92029.69;;;20.69;35.86
53041;BME280;39326;42.650;23.248;2023-03-25T11:04:24;92031.72;;;20.50;36.81
53041;BME280;39326;42.650;23.248;2023-03-25T11:06:55;92022.00;;;20.68;35.56
53041;BME280;39326;42.650;23.248;2023-03-25T11:09:25;92016.19;;;20.60;35.16
53041;BME280;39326;42.650;23.248;2023-03-25T11:11:52;92016.25;;;21.08;34.82
53041;BME280;39326;42.650;23.248;2023-03-25T11:14:27;91998.53;;;21.22;34.50
53041;BME280;39326;42.650;23.248;2023-03-25T11:17:00;92002.72;;;21.23;33.68
53041;BME280;39326;42.650;23.248;2023-03-25T11:19:41;92001.53;;;21.39;34.94
53041;BME280;39326;42.650;23.248;2023-03-25T11:22:17;91995.56;;;21.49;35.40
53041;BME280;39326;42.650;23.248;2023-03-25T11:24:48;91994.00;;;21.57;33.80
53041;BME280;39326;42.650;23.248;2023-03-25T11:27:26;91987.75;;;21.66;35.05
53041;BME280;39326;42.650;23.248;2023-03-25T11:29:59;91998.63;;;22.10;34.64
53041;BME280;39326;42.650;23.248;2023-03-25T11:32:38;91994.47;;;22.45;33.11
53041;BME280;39326;42.650;23.248;2023-03-25T11:35:17;91986.09;;;22.63;32.47
53041;BME280;39326;42.650;23.248;2023-03-25T11:37:46;91980.56;;;22.72;31.73
53041;BME280;39326;42.650;23.248;2023-03-25T11:40:14;91980.13;;;22.59;32.41
53041;BME280;39326;42.650;23.248;2023-03-25T11:42:43;91977.44;;;22.29;31.30
53041;BME280;39326;42.650;23.248;2023-03-25T11:45:26;91972.56;;;21.59;31.10
53041;BME280;39326;42.650;23.248;2023-03-25T11:48:08;91971.16;;;21.64;31.88
53041;BME280;39326;42.650;23.248;2023-03-25T11:50:34;91972.81;;;21.32;32.86
53041;BME280;39326;42.650;23.248;2023-03-25T11:53:01;91968.78;;;21.27;31.54
53041;BME280;39326;42.650;23.248;2023-03-25T11:55:30;91961.88;;;21.02;32.32
53041;BME280;39326;42.650;23.248;2023-03-25T11:57:58;91969.28;;;20.45;32.46
53041;BME280;39326;42.650;23.248;2023-03-25T12:00:38;91960.38;;;20.53;31.73
53041;BME280;39326;42.650;23.248;2023-03-25T12:03:07;91958.28;;;20.48;32.71
53041;BME280;39326;42.650;23.248;2023-03-25T12:05:40;91958.28;;;20.48;33.17
53041;BME280;39326;42.650;23.248;2023-03-25T12:08:16;91956.09;;;20.28;33.14
53041;BME280;39326;42.650;23.248;2023-03-25T12:11:03;91958.28;;;20.06;33.62
53041;BME280;39326;42.650;23.248;2023-03-25T12:13:34;91957.50;;;19.72;33.79
53041;BME280;39326;42.650;23.248;2023-03-25T12:16:23;91941.19;;;19.39;34.21
53041;BME280;39326;42.650;23.248;2023-03-25T12:22:08;91945.09;;;19.20;34.60
53041;BME280;39326;42.650;23.248;2023-03-25T13:05:39;91943.66;;;18.42;35.08
53041;BME280;39326;42.650;23.248;2023-03-25T13:08:20;91944.09;;;18.40;35.89
53041;BME280;39326;42.650;23.248;2023-03-25T13:10:54;91943.06;;;18.47;37.00
53041;BME280;39326;42.650;23.248;2023-03-25T13:13:23;91944.34;;;18.24;37.86
53041;BME280;39326;42.650;23.248;2023-03-25T13:16:11;91944.41;;;18.33;37.23
53041;BME280;39326;42.650;23.248;2023-03-25T13:18:49;91944.75;;;18.04;35.55
53041;BME280;39326;42.650;23.248;2023-03-25T13:21:27;91950.88;;;17.96;37.20
53041;BME280;39326;42.650;23.248;2023-03-25T13:23:57;91944.63;;;18.08;37.88
53041;BME280;39326;42.650;23.248;2023-03-25T13:26:27;91951.78;;;18.02;39.38
53041;BME280;39326;42.650;23.248;2023-03-25T13:29:04;91951.63;;;17.74;39.45
53041;BME280;39326;42.650;23.248;2023-03-25T13:31:36;91958.84;;;17.46;40.52
53041;BME280;39326;42.650;23.248;2023-03-25T13:34:21;91962.53;;;17.18;40.81
53041;BME280;39326;42.650;23.248;2023-03-25T13:45:24;91989.25;;;16.30;42.96
53041;BME280;39326;42.650;23.248;2023-03-25T13:50:30;92014.44;;;15.43;48.67
53041;BME280;39326;42.650;23.248;2023-03-25T13:55:34;92011.31;;;15.16;53.47
53041;BME280;39326;42.650;23.248;2023-03-25T14:04:14;92006.38;;;14.69;56.31
53041;BME280;39326;42.650;23.248;2023-03-25T14:12:26;92000.81;;;14.60;56.21
53041;BME280;39326;42.650;23.248;2023-03-25T14:15:14;92004.53;;;14.50;57.03
53041;BME280;39326;42.650;23.248;2023-03-25T14:17:43;91999.00;;;14.41;56.21
53041;BME280;39326;42.650;23.248;2023-03-25T14:20:23;91993.47;;;14.31;57.14
53041;BME280;39326;42.650;23.248;2023-03-25T14:23:02;91995.75;;;14.17;57.96
53041;BME280;39326;42.650;23.248;2023-03-25T14:25:32;91989.38;;;14.10;58.06
53041;BME280;39326;42.650;23.248;2023-03-25T14:28:01;91993.31;;;14.06;58.83
53041;BME280;39326;42.650;23.248;2023-03-25T14:30:28;91986.06;;;13.87;60.80
53041;BME280;39326;42.650;23.248;2023-03-25T14:32:55;91972.28;;;13.68;62.59
53041;BME280;39326;42.650;23.248;2023-03-25T14:43:23;91888.06;;;12.77;70.15
53041;BME280;39326;42.650;23.248;2023-03-25T14:48:29;91865.28;;;12.89;71.04
53041;BME280;39326;42.650;23.248;2023-03-25T14:56:18;91880.00;;;12.57;76.32
53041;BME280;39326;42.650;23.248;2023-03-25T14:58:45;91887.38;;;12.93;74.80
53041;BME280;39326;42.650;23.248;2023-03-25T15:01:17;91883.50;;;13.14;73.85
53041;BME280;39326;42.650;23.248;2023-03-25T15:03:44;91885.97;;;13.24;72.97
53041;BME280;39326;42.650;23.248;2023-03-25T15:06:26;91889.81;;;13.40;71.65
53041;BME280;39326;42.650;23.248;2023-03-25T15:08:55;91886.44;;;13.55;70.95
53041;BME280;39326;42.650;23.248;2023-03-25T15:12:18;91889.38;;;13.61;72.73
53041;BME280;39326;42.650;23.248;2023-03-25T15:14:40;91892.13;;;13.74;70.52
53041;BME280;39326;42.650;23.248;2023-03-25T15:17:11;91891.56;;;13.82;71.30
53041;BME280;39326;42.650;23.248;2023-03-25T15:22:36;91872.53;;;13.77;69.08
53041;BME280;39326;42.650;23.248;2023-03-25T15:25:12;91865.66;;;13.76;69.67
53041;BME280;39326;42.650;23.248;2023-03-25T15:38:48;91866.63;;;13.86;71.43
53041;BME280;39326;42.650;23.248;2023-03-25T15:54:47;91865.84;;;13.69;69.79
53041;BME280;39326;42.650;23.248;2023-03-25T16:00:31;91858.69;;;13.46;71.30
53041;BME280;39326;42.650;23.248;2023-03-25T16:03:10;91859.97;;;13.41;71.25
53041;BME280;39326;42.650;23.248;2023-03-25T16:05:44;91871.06;;;13.40;70.25
53041;BME280;39326;42.650;23.248;2023-03-25T16:08:18;91872.69;;;13.37;70.17